Terminal Aerodrome Forecast
Issued by NWS

Current Version | Previous Version | Text Only | Print | Product List | Glossary On
Versions: 1 2 3 4 5 6 7 8 9 10 11 12 13 14 15 16 17 18 19 20 21 22 23 24 25 26 27 28 29 30 31
216
FTUS43 KDMX 241730
TAFOTM
TAF
KOTM 241730Z 2418/2518 19011KT P6SM SCT025 BKN035
     FM250300 16006KT P6SM BKN040 BKN110
      TEMPO 2506/2507 4SM -TSRA OVC040CB
     FM250700 19007KT 6SM -TSRA BKN050CB
     FM251100 16007KT 2SM -TSRA OVC050CB
     FM251600 17010KT 6SM BR VCTS BKN035CB=

USA.gov is the U.S. government's official web portal to all federal, state and local government web resources and services.